Airport View

Enter AWOS ICAO identifier for current METAR.

ex. KFNL

PAKT 061653Z 00000KT 10SM SCT013 BKN040 OVC075 14/12 A3005

6 Jul 2020 18:08

Frequency: 134.45

Phone: 907-247-8801

Other Area AWOS: PAMM - PANT - PAHY - PAKW

TAF PAKT 061730Z 0618/0718 VRB03KT P6SM VCSH SCT013 BKN040 OVC070 FM062100 12007KT P6SM VCSH SCT013 BKN040 OVC070 FM070900 15004KT P6SM BKN015 OVC025 FM071400 13005KT P6SM VCSH BKN025 OVC040 AMD LTD TO CLD VIS AND WIND 0706/0715